Time;durP1;ratioP1;P1;durP2;ratioP2;P2;SDS_P1;SDS_P2;PMS_P1;PMS_P2;Temp;Humidity;BMP_temperature;BMP_pressure;BME280_temperature;BME280_humidity;BME280_pressure;Samples;Min_cycle;Max_cycle;Signal;HPM_P1;HPM_P2
2024/01/20 00:01:03;;;;;;;;;;;;;;;16.25;47.10;100566.59;5056901;28;1063;-58
2024/01/20 00:03:28;;;;;;;;;;;;;;;16.31;47.31;100576.44;5056981;28;1081;-58
2024/01/20 00:05:54;;;;;;;;;;;;;;;17.20;47.71;100588.84;5056942;28;1982;-58
2024/01/20 00:08:19;;;;;;;;;;;;;;;16.41;48.38;100597.56;5057664;28;1091;-58
2024/01/20 00:10:45;;;;;;;;;;;;;;;16.83;48.50;100607.38;5057151;28;985;-58
2024/01/20 00:13:10;;;;;;;;;;;;;;;16.69;48.79;100609.03;5057210;28;1075;-60
2024/01/20 00:15:36;;;;;;;;;;;;;;;16.39;48.09;100618.97;5056928;28;1048;-60
2024/01/20 00:18:03;;;;;;;;;;;;;;;16.24;47.56;100619.81;5057354;28;1092;-60
2024/01/20 00:20:29;;;;;;;;;;;;;;;17.51;47.23;100624.41;5056691;28;1044;-58
2024/01/20 00:22:54;;;;;;;;;;;;;;;16.50;48.41;100623.34;5056998;28;1039;-58
2024/01/20 00:25:20;;;;;;;;;;;;;;;16.41;47.53;100634.06;5056793;28;1901;-60
2024/01/20 00:27:49;;;;;;;;;;;;;;;16.92;48.02;100629.59;5057035;28;938;-61
2024/01/20 00:30:15;;;;;;;;;;;;;;;16.69;48.33;100639.22;5057001;28;1196;-61
2024/01/20 00:32:40;;;;;;;;;;;;;;;16.24;47.95;100636.25;5056709;28;1035;-60
2024/01/20 00:35:06;;;;;;;;;;;;;;;16.46;48.45;100626.94;5056835;28;1208;-61
2024/01/20 00:37:32;;;;;;;;;;;;;;;17.32;47.30;100622.31;5056963;28;1040;-60
2024/01/20 00:39:57;;;;;;;;;;;;;;;16.56;48.13;100625.00;5056650;28;1206;-60
2024/01/20 00:42:23;;;;;;;;;;;;;;;16.32;47.12;100630.22;5056246;28;1107;-60
2024/01/20 00:44:49;;;;;;;;;;;;;;;16.80;48.15;100638.09;5054583;28;1929;-58
2024/01/20 00:47:15;;;;;;;;;;;;;;;16.67;48.33;100642.25;5042147;28;1045;-60
2024/01/20 00:49:41;;;;;;;;;;;;;;;16.35;47.76;100653.56;5054685;28;1029;-59
2024/01/20 00:52:06;;;;;;;;;;;;;;;16.18;47.65;100653.84;5056497;28;933;-59
2024/01/20 00:54:32;;;;;;;;;;;;;;;17.02;47.89;100647.97;5055992;28;1116;-59
2024/01/20 00:56:57;;;;;;;;;;;;;;;16.39;48.21;100649.97;5056863;28;1055;-58
2024/01/20 00:59:23;;;;;;;;;;;;;;;16.11;47.35;100661.50;5056249;28;1063;-58
2024/01/20 01:01:48;;;;;;;;;;;;;;;16.60;47.65;100677.41;5055842;28;1130;-57
2024/01/20 01:04:14;;;;;;;;;;;;;;;16.73;48.40;100692.50;5055267;28;1905;-58
2024/01/20 01:06:39;;;;;;;;;;;;;;;16.24;47.92;100688.38;5056077;28;1079;-58
2024/01/20 01:09:05;;;;;;;;;;;;;;;16.16;47.30;100695.25;5056411;28;1071;-59
2024/01/20 01:11:30;;;;;;;;;;;;;;;17.64;46.97;100709.00;5056336;28;1218;-59
2024/01/20 01:13:56;;;;;;;;;;;;;;;16.69;47.84;100719.69;5055757;28;1016;-59
2024/01/20 01:16:22;;;;;;;;;;;;;;;16.25;47.48;100704.56;5055642;28;879;-59
2024/01/20 01:18:47;;;;;;;;;;;;;;;17.39;47.27;100704.44;5055822;28;1008;-59
2024/01/20 01:21:13;;;;;;;;;;;;;;;16.56;48.05;100703.78;5056057;28;1095;-59
2024/01/20 01:23:38;;;;;;;;;;;;;;;16.33;47.35;100705.16;5055935;28;1151;-59
2024/01/20 01:26:04;;;;;;;;;;;;;;;17.56;47.16;100702.19;5055733;28;2013;-59
2024/01/20 01:28:29;;;;;;;;;;;;;;;16.63;48.13;100703.50;5055955;28;954;-59
2024/01/20 01:30:55;;;;;;;;;;;;;;;16.35;47.52;100694.72;5055965;28;1095;-59
2024/01/20 01:33:20;;;;;;;;;;;;;;;16.21;46.84;100692.50;5056174;28;1066;-59
2024/01/20 01:35:46;;;;;;;;;;;;;;;16.63;47.58;100698.00;5055965;28;1267;-59
2024/01/20 01:38:11;;;;;;;;;;;;;;;16.78;47.96;100711.72;5056109;28;1151;-59
2024/01/20 01:40:37;;;;;;;;;;;;;;;16.46;48.68;100721.06;5055445;28;1191;-59
2024/01/20 01:43:02;;;;;;;;;;;;;;;18.00;46.43;100725.34;5055837;28;1106;-59
2024/01/20 01:45:28;;;;;;;;;;;;;;;16.89;47.99;100740.03;5055350;28;1977;-59
2024/01/20 01:47:54;;;;;;;;;;;;;;;16.38;47.92;100758.13;5055647;28;1028;-59
2024/01/20 01:50:20;;;;;;;;;;;;;;;16.26;46.98;100754.81;5055505;28;1063;-59
2024/01/20 01:52:47;;;;;;;;;;;;;;;16.99;47.81;100739.19;5055647;28;926;-59
2024/01/20 01:55:13;;;;;;;;;;;;;;;16.36;47.98;100746.56;5055617;28;1064;-59
2024/01/20 01:57:39;;;;;;;;;;;;;;;16.56;48.21;100747.69;5042982;28;1041;-59
2024/01/20 02:00:04;;;;;;;;;;;;;;;17.06;47.58;100757.03;5056029;28;1089;-59
2024/01/20 02:02:31;;;;;;;;;;;;;;;16.45;47.99;100741.38;5055253;28;1064;-59
2024/01/20 02:04:56;;;;;;;;;;;;;;;16.19;47.42;100759.72;5055134;28;1973;-59
2024/01/20 02:07:22;;;;;;;;;;;;;;;17.14;47.23;100763.06;5055977;28;1016;-59
2024/01/20 02:09:47;;;;;;;;;;;;;;;16.41;48.00;100774.03;5038083;28;1130;-59
2024/01/20 02:12:14;;;;;;;;;;;;;;;16.13;47.33;100774.53;5053541;28;1013;-59
2024/01/20 02:14:41;;;;;;;;;;;;;;;17.01;47.75;100761.69;5040142;28;1092;-58
2024/01/20 02:17:06;;;;;;;;;;;;;;;17.02;47.63;100757.88;5040937;28;1053;-59
2024/01/20 02:19:35;;;;;;;;;;;;;;;16.46;48.33;100761.41;5059421;28;1161;-59
2024/01/20 02:22:07;;;;;;;;;;;;;;;17.98;46.12;100757.84;5046355;28;993;-60
2024/01/20 02:24:33;;;;;;;;;;;;;;;16.83;48.10;100760.31;5041036;28;1902;-60
2024/01/20 02:26:59;;;;;;;;;;;;;;;16.54;47.36;100777.34;5041057;28;1152;-60
2024/01/20 02:29:24;;;;;;;;;;;;;;;16.32;46.91;100781.16;5058930;28;830;-60
2024/01/20 02:31:50;;;;;;;;;;;;;;;17.01;47.77;100792.75;5059139;28;1115;-60
2024/01/20 02:34:15;;;;;;;;;;;;;;;16.74;47.90;100814.97;5058957;28;1114;-59
2024/01/20 02:36:41;;;;;;;;;;;;;;;16.36;47.65;100831.66;5058939;28;1039;-60
2024/01/20 02:39:06;;;;;;;;;;;;;;;16.16;46.90;100853.53;5058883;28;1079;-60
2024/01/20 02:41:32;;;;;;;;;;;;;;;17.27;47.35;100861.41;5058641;28;913;-60
2024/01/20 02:43:57;;;;;;;;;;;;;;;16.49;48.07;100873.41;5058929;28;1918;-59
2024/01/20 02:46:23;;;;;;;;;;;;;;;17.55;46.81;100867.44;5041274;28;1144;-59
2024/01/20 02:48:49;;;;;;;;;;;;;;;17.50;47.16;100881.19;5040800;28;1152;-59
2024/01/20 02:51:14;;;;;;;;;;;;;;;16.73;47.94;100885.53;5058804;28;1031;-59
2024/01/20 02:53:39;;;;;;;;;;;;;;;16.55;47.26;100883.28;5058534;28;878;-59
2024/01/20 02:56:05;;;;;;;;;;;;;;;16.40;47.03;100898.63;5058721;28;1031;-59
2024/01/20 02:58:31;;;;;;;;;;;;;;;16.66;47.83;100900.63;5058115;28;1064;-59
2024/01/20 03:00:58;;;;;;;;;;;;;;;16.35;47.12;100915.06;5058356;28;1071;-58
2024/01/20 03:03:24;;;;;;;;;;;;;;;16.42;47.59;100918.41;5058216;28;1209;-60
2024/01/20 03:05:49;;;;;;;;;;;;;;;17.05;47.38;100925.69;5058402;28;1914;-59
2024/01/20 03:08:15;;;;;;;;;;;;;;;16.38;47.64;100933.75;5058483;28;1068;-59
2024/01/20 03:10:40;;;;;;;;;;;;;;;16.21;46.84;100941.34;5058334;28;1051;-59
2024/01/20 03:13:06;;;;;;;;;;;;;;;16.55;47.61;100944.53;5058462;28;1119;-59
2024/01/20 03:15:31;;;;;;;;;;;;;;;17.49;46.90;100942.75;5057903;28;1039;-59
2024/01/20 03:17:57;;;;;;;;;;;;;;;16.50;48.07;100930.78;5057682;28;937;-59
2024/01/20 03:20:22;;;;;;;;;;;;;;;16.91;47.75;100930.09;5058429;28;1072;-59
2024/01/20 03:22:48;;;;;;;;;;;;;;;16.84;47.94;100919.31;5057847;28;1020;-58
2024/01/20 03:25:13;;;;;;;;;;;;;;;16.38;47.47;100916.44;5057496;28;1901;-59
2024/01/20 03:27:39;;;;;;;;;;;;;;;17.49;47.16;100910.59;5058250;28;1132;-60
2024/01/20 03:30:05;;;;;;;;;;;;;;;16.73;47.80;100924.00;5058163;28;853;-61
2024/01/20 03:32:30;;;;;;;;;;;;;;;16.67;47.89;100936.03;5058078;28;1085;-61
2024/01/20 03:34:56;;;;;;;;;;;;;;;17.29;47.37;100936.16;5057730;28;1043;-62
2024/01/20 03:37:21;;;;;;;;;;;;;;;16.62;47.61;100933.28;5057695;28;1062;-61
2024/01/20 03:39:47;;;;;;;;;;;;;;;17.58;47.11;100919.13;5057850;28;1124;-61
2024/01/20 03:42:13;;;;;;;;;;;;;;;17.28;47.58;100912.53;5057514;28;854;-59
2024/01/20 03:44:38;;;;;;;;;;;;;;;16.69;47.73;100916.53;5057465;28;1909;-60
2024/01/20 03:47:04;;;;;;;;;;;;;;;16.51;46.83;100912.38;5057660;28;1095;-60
2024/01/20 03:49:29;;;;;;;;;;;;;;;16.35;46.08;100917.00;5057663;28;1195;-60
2024/01/20 03:51:55;;;;;;;;;;;;;;;16.88;47.43;100914.97;5057502;28;1076;-61
2024/01/20 03:54:21;;;;;;;;;;;;;;;16.35;47.57;100922.47;5057543;28;1127;-60
2024/01/20 03:56:46;;;;;;;;;;;;;;;17.86;46.45;100922.38;5057312;28;1048;-61
2024/01/20 03:59:12;;;;;;;;;;;;;;;17.00;47.88;100922.97;5057175;28;1182;-61
2024/01/20 04:01:39;;;;;;;;;;;;;;;16.58;47.42;100926.69;5039739;28;1068;-60
2024/01/20 04:04:05;;;;;;;;;;;;;;;16.30;47.02;100930.69;5057400;28;1981;-61
2024/01/20 04:06:33;;;;;;;;;;;;;;;16.22;46.29;100937.53;5057020;28;858;-60
2024/01/20 04:08:58;;;;;;;;;;;;;;;17.45;47.16;100957.06;5056793;28;1020;-60
2024/01/20 04:11:24;;;;;;;;;;;;;;;17.06;47.65;100971.31;5057542;28;1207;-61
2024/01/20 04:13:49;;;;;;;;;;;;;;;16.57;47.52;100961.53;5057592;28;1116;-58
2024/01/20 04:16:15;;;;;;;;;;;;;;;16.24;46.91;100981.97;5056843;28;992;-61
2024/01/20 04:18:40;;;;;;;;;;;;;;;17.42;47.25;100996.09;5039210;28;1089;-63
2024/01/20 04:21:06;;;;;;;;;;;;;;;16.70;48.07;101001.38;5056810;28;1522;-65
2024/01/20 04:23:32;;;;;;;;;;;;;;;16.34;47.31;101020.47;5057302;28;1062;-63
2024/01/20 04:25:57;;;;;;;;;;;;;;;16.51;47.43;101027.66;5056494;28;1901;-62
2024/01/20 04:28:23;;;;;;;;;;;;;;;16.48;48.16;101031.78;5056746;28;1024;-59
2024/01/20 04:30:48;;;;;;;;;;;;;;;16.24;47.12;101037.69;5055621;28;989;-59
2024/01/20 04:33:14;;;;;;;;;;;;;;;16.77;47.53;101050.56;5057014;28;1102;-55
2024/01/20 04:35:39;;;;;;;;;;;;;;;16.83;47.54;101055.00;5057081;28;1195;-54
2024/01/20 04:38:05;;;;;;;;;;;;;;;16.21;47.28;101062.06;5056536;28;1089;-55
2024/01/20 04:40:30;;;;;;;;;;;;;;;16.53;47.63;101066.66;5056446;28;1131;-54
2024/01/20 04:42:56;;;;;;;;;;;;;;;16.94;47.38;101066.88;5056808;28;1106;-56
2024/01/20 04:45:21;;;;;;;;;;;;;;;16.53;47.86;101072.97;5057062;28;1981;-61
2024/01/20 04:47:47;;;;;;;;;;;;;;;18.05;45.72;101077.53;5057251;28;1094;-61
2024/01/20 04:50:12;;;;;;;;;;;;;;;16.99;47.58;101082.56;5056360;28;1036;-61
2024/01/20 04:52:38;;;;;;;;;;;;;;;16.58;47.11;101096.91;5056067;28;1063;-62
2024/01/20 04:55:03;;;;;;;;;;;;;;;16.28;47.00;101092.03;5056677;28;1055;-61
2024/01/20 04:57:29;;;;;;;;;;;;;;;16.19;46.16;101095.25;5041892;28;2427;-60
2024/01/20 04:59:54;;;;;;;;;;;;;;;17.54;46.45;101107.72;5054671;28;1408;-61
2024/01/20 05:02:20;;;;;;;;;;;;;;;16.56;47.95;101107.31;5055517;28;1124;-60
2024/01/20 05:04:46;;;;;;;;;;;;;;;16.34;47.14;101119.25;5055750;28;1905;-61
2024/01/20 05:07:11;;;;;;;;;;;;;;;17.70;46.34;101123.16;5055476;28;1199;-59
2024/01/20 05:09:38;;;;;;;;;;;;;;;16.66;47.74;101123.88;5051329;28;1029;-61
2024/01/20 05:12:04;;;;;;;;;;;;;;;16.40;47.28;101131.09;5054641;28;1018;-61
2024/01/20 05:14:29;;;;;;;;;;;;;;;16.28;46.45;101112.06;5055910;28;1031;-61
2024/01/20 05:16:55;;;;;;;;;;;;;;;16.36;46.78;101133.53;5056136;28;936;-61
2024/01/20 05:19:20;;;;;;;;;;;;;;;17.35;46.83;101138.47;5056070;28;1047;-61
2024/01/20 05:21:46;;;;;;;;;;;;;;;16.45;48.74;101146.75;5055600;28;1023;-61
2024/01/20 05:24:12;;;;;;;;;;;;;;;16.43;48.56;101147.03;5056150;28;1981;-61
2024/01/20 05:26:37;;;;;;;;;;;;;;;16.14;49.40;101152.03;5055664;28;1842;-61
2024/01/20 05:29:03;;;;;;;;;;;;;;;16.00;49.40;101155.19;5055691;28;1092;-60
2024/01/20 05:31:31;;;;;;;;;;;;;;;15.77;49.84;101137.13;5055724;28;1183;-60
2024/01/20 05:34:00;;;;;;;;;;;;;;;15.65;50.18;101140.00;5056157;28;1120;-60
2024/01/20 05:36:25;;;;;;;;;;;;;;;15.51;50.41;101161.50;5038270;28;1004;-60
2024/01/20 05:38:51;;;;;;;;;;;;;;;15.39;50.64;101164.41;5055524;28;1195;-61
2024/01/20 05:41:16;;;;;;;;;;;;;;;15.32;50.82;101177.47;5055751;28;1124;-60
2024/01/20 05:43:42;;;;;;;;;;;;;;;16.83;47.23;101180.50;5054514;28;1028;-59
2024/01/20 05:46:07;;;;;;;;;;;;;;;17.09;46.16;101176.84;5042854;28;1989;-60
2024/01/20 05:48:34;;;;;;;;;;;;;;;16.25;48.21;101190.25;5047444;28;1282;-56
2024/01/20 05:50:59;;;;;;;;;;;;;;;15.79;49.49;101175.25;5059386;28;1250;-58
2024/01/20 05:53:25;;;;;;;;;;;;;;;15.55;49.70;101194.72;5059233;28;1008;-59
2024/01/20 05:55:50;;;;;;;;;;;;;;;15.40;50.40;101193.47;5058592;28;1923;-59
2024/01/20 05:58:16;;;;;;;;;;;;;;;15.76;49.44;101184.00;5059485;28;1157;-60
2024/01/20 06:00:41;;;;;;;;;;;;;;;17.22;45.78;101183.78;5047941;28;1147;-61
2024/01/20 06:03:07;;;;;;;;;;;;;;;16.80;46.64;101175.56;5049147;28;1246;-62
2024/01/20 06:05:32;;;;;;;;;;;;;;;16.14;48.12;101174.78;5055474;28;1984;-61
2024/01/20 06:07:58;;;;;;;;;;;;;;;15.76;49.31;101170.28;5059678;28;1116;-59
2024/01/20 06:10:23;;;;;;;;;;;;;;;15.56;49.79;101174.47;5059684;28;1010;-59
2024/01/20 06:12:49;;;;;;;;;;;;;;;16.62;47.20;101174.91;5058975;28;1094;-58
2024/01/20 06:15:14;;;;;;;;;;;;;;;17.53;44.92;101189.41;5059374;28;1052;-60
2024/01/20 06:17:40;;;;;;;;;;;;;;;16.54;47.02;101187.19;5059237;28;1017;-57
2024/01/20 06:20:06;;;;;;;;;;;;;;;15.98;48.55;101186.72;5058903;28;1342;-59
2024/01/20 06:22:31;;;;;;;;;;;;;;;15.71;48.97;101213.00;5059348;28;1011;-59
2024/01/20 06:24:57;;;;;;;;;;;;;;;15.53;49.67;101213.34;5045210;28;1906;-57
2024/01/20 06:27:22;;;;;;;;;;;;;;;16.49;47.45;101235.75;5050986;28;2078;-58
2024/01/20 06:29:48;;;;;;;;;;;;;;;17.41;44.91;101241.03;5055088;28;1099;-61
2024/01/20 06:32:13;;;;;;;;;;;;;;;16.32;47.38;101233.94;5059045;28;1136;-62
2024/01/20 06:34:39;;;;;;;;;;;;;;;15.91;48.63;101253.56;5058980;28;1100;-62
2024/01/20 06:37:05;;;;;;;;;;;;;;;15.72;48.91;101255.81;5059216;28;1039;-61
2024/01/20 06:39:30;;;;;;;;;;;;;;;15.49;49.55;101269.75;5058813;28;1012;-62
2024/01/20 06:41:56;;;;;;;;;;;;;;;16.78;46.48;101293.91;5058138;28;1095;-61
2024/01/20 06:44:24;;;;;;;;;;;;;;;17.56;44.42;101301.59;5058356;28;1971;-59
2024/01/20 06:46:50;;;;;;;;;;;;;;;16.50;46.88;101325.25;5058371;28;1064;-56
2024/01/20 06:49:15;;;;;;;;;;;;;;;16.06;48.05;101301.44;5058718;28;1148;-58
2024/01/20 06:51:43;;;;;;;;;;;;;;;15.76;48.80;101315.59;5059024;28;1488;-55
2024/01/20 06:54:08;;;;;;;;;;;;;;;15.57;49.13;101335.94;5058206;28;1086;-58
2024/01/20 06:56:34;;;;;;;;;;;;;;;16.31;47.81;101331.06;5057978;28;1849;-57
2024/01/20 06:58:59;;;;;;;;;;;;;;;17.53;44.66;101345.28;5058476;28;1020;-58
2024/01/20 07:01:25;;;;;;;;;;;;;;;16.75;46.21;101352.13;5057554;28;1274;-59
2024/01/20 07:03:50;;;;;;;;;;;;;;;16.11;48.02;101355.56;5058779;28;1115;-61
2024/01/20 07:06:16;;;;;;;;;;;;;;;15.80;48.76;101356.00;5057641;28;1914;-60
2024/01/20 07:08:42;;;;;;;;;;;;;;;15.57;49.20;101370.72;5058724;28;1100;-61
2024/01/20 07:11:08;;;;;;;;;;;;;;;16.03;48.24;101373.28;5058097;28;1123;-62
2024/01/20 07:13:34;;;;;;;;;;;;;;;17.41;44.77;101354.56;5058136;28;1059;-59
2024/01/20 07:16:00;;;;;;;;;;;;;;;16.88;45.76;101364.59;5039914;28;1517;-59
2024/01/20 07:18:25;;;;;;;;;;;;;;;16.12;47.92;101354.44;5058048;28;1099;-58
2024/01/20 07:20:51;;;;;;;;;;;;;;;15.76;48.52;101346.59;5058045;28;1071;-59
2024/01/20 07:23:17;;;;;;;;;;;;;;;15.58;49.32;101350.44;5058125;28;1028;-59
2024/01/20 07:25:42;;;;;;;;;;;;;;;15.76;49.06;101354.00;5057072;28;2064;-58
2024/01/20 07:28:08;;;;;;;;;;;;;;;17.27;45.10;101364.38;5058024;28;1055;-57
2024/01/20 07:30:33;;;;;;;;;;;;;;;17.32;44.76;101347.09;5058215;28;1155;-59
2024/01/20 07:32:59;;;;;;;;;;;;;;;16.37;47.09;101354.75;5057994;28;1225;-57
2024/01/20 07:35:24;;;;;;;;;;;;;;;15.87;48.52;101361.31;5057438;28;1036;-57
2024/01/20 07:37:50;;;;;;;;;;;;;;;15.69;48.79;101355.00;5039953;28;1068;-56
2024/01/20 07:40:17;;;;;;;;;;;;;;;15.82;48.75;101353.84;5057469;28;985;-57
2024/01/20 07:42:42;;;;;;;;;;;;;;;17.30;45.00;101355.59;5056562;28;956;-60
2024/01/20 07:45:08;;;;;;;;;;;;;;;16.81;46.09;101353.00;5057042;28;1980;-61
2024/01/20 07:47:33;;;;;;;;;;;;;;;16.18;47.46;101350.69;5055759;28;1523;-60
2024/01/20 07:49:59;;;;;;;;;;;;;;;15.80;48.67;101339.53;5057123;28;1080;-58
2024/01/20 07:52:24;;;;;;;;;;;;;;;15.47;49.23;101351.41;5056564;28;1079;-59
2024/01/20 07:54:50;;;;;;;;;;;;;;;16.97;45.70;101352.06;5056443;28;1044;-59
2024/01/20 07:57:16;;;;;;;;;;;;;;;17.37;44.79;101358.13;5057158;28;2086;-59
2024/01/20 07:59:41;;;;;;;;;;;;;;;16.42;46.85;101367.69;5057464;28;1048;-59
2024/01/20 08:02:07;;;;;;;;;;;;;;;15.97;47.94;101369.66;5057406;28;1008;-60
2024/01/20 08:04:32;;;;;;;;;;;;;;;15.73;48.55;101378.09;5039373;28;1963;-61
2024/01/20 08:06:58;;;;;;;;;;;;;;;15.49;49.19;101379.41;5056724;28;1056;-58
2024/01/20 08:09:23;;;;;;;;;;;;;;;16.32;47.55;101375.84;5056997;28;1097;-57
2024/01/20 08:11:49;;;;;;;;;;;;;;;17.55;44.29;101378.88;5055280;28;1301;-59
2024/01/20 08:14:15;;;;;;;;;;;;;;;16.65;46.17;101390.44;5052215;28;1040;-59
2024/01/20 08:16:40;;;;;;;;;;;;;;;16.07;47.64;101391.75;5056559;28;1096;-61
2024/01/20 08:19:06;;;;;;;;;;;;;;;15.82;48.37;101416.06;5056780;28;893;-60
2024/01/20 08:21:31;;;;;;;;;;;;;;;15.57;48.76;101425.53;5056759;28;1329;-59
2024/01/20 08:23:57;;;;;;;;;;;;;;;16.81;46.04;101433.47;5057395;28;1250;-59
2024/01/20 08:26:22;;;;;;;;;;;;;;;17.54;44.35;101437.69;5056130;28;1962;-60
2024/01/20 08:28:48;;;;;;;;;;;;;;;16.48;46.51;101445.44;5056416;28;1356;-58
2024/01/20 08:31:14;;;;;;;;;;;;;;;15.99;48.09;101457.16;5056697;28;1032;-58
2024/01/20 08:33:42;;;;;;;;;;;;;;;15.70;48.81;101468.25;5057192;28;920;-60
2024/01/20 08:36:07;;;;;;;;;;;;;;;15.54;49.00;101462.53;5056389;28;1008;-59
2024/01/20 08:38:33;;;;;;;;;;;;;;;16.16;47.67;101468.94;5056050;28;1253;-60
2024/01/20 08:40:58;;;;;;;;;;;;;;;17.48;44.64;101466.25;5056335;28;1285;-58
2024/01/20 08:43:24;;;;;;;;;;;;;;;16.70;45.92;101473.69;5038534;28;993;-58
2024/01/20 08:45:50;;;;;;;;;;;;;;;16.11;47.66;101476.28;5056643;28;1986;-58
2024/01/20 08:48:16;;;;;;;;;;;;;;;15.74;48.46;101488.59;5044817;28;1325;-58
2024/01/20 08:50:41;;;;;;;;;;;;;;;15.58;49.00;101468.31;5054286;28;1262;-58
2024/01/20 08:53:07;;;;;;;;;;;;;;;16.37;47.05;101491.19;5056606;28;1167;-59
2024/01/20 08:55:32;;;;;;;;;;;;;;;17.57;44.33;101475.66;5055920;28;1293;-60
2024/01/20 08:57:58;;;;;;;;;;;;;;;16.63;46.08;101480.50;5062989;28;2135;-61
2024/01/20 09:00:23;;;;;;;;;;;;;;;15.95;48.03;101487.03;5056399;28;1223;-59
2024/01/20 09:02:50;;;;;;;;;;;;;;;15.76;48.62;101491.09;5055523;28;1289;-59
2024/01/20 09:05:17;;;;;;;;;;;;;;;15.50;49.09;101496.16;5055641;28;1905;-59
2024/01/20 09:07:43;;;;;;;;;;;;;;;16.59;46.35;101481.03;5055812;28;1072;-59
2024/01/20 09:10:09;;;;;;;;;;;;;;;17.35;44.57;101490.34;5055245;28;1024;-59
2024/01/20 09:12:35;;;;;;;;;;;;;;;16.31;46.67;101493.00;5055604;28;1308;-59
2024/01/20 09:15:00;;;;;;;;;;;;;;;15.91;47.83;101499.59;5053230;28;1270;-57
2024/01/20 09:17:26;;;;;;;;;;;;;;;15.62;48.78;101502.38;5041549;28;1098;-58
2024/01/20 09:19:51;;;;;;;;;;;;;;;15.42;49.03;101497.41;5051606;28;1352;-58
2024/01/20 09:22:17;;;;;;;;;;;;;;;16.78;45.87;101497.16;5056158;28;1113;-58
2024/01/20 09:24:43;;;;;;;;;;;;;;;17.49;44.13;101501.72;5054557;28;1906;-59
2024/01/20 09:27:08;;;;;;;;;;;;;;;16.36;46.61;101500.47;5054091;28;2091;-60
2024/01/20 09:29:34;;;;;;;;;;;;;;;15.96;47.59;101515.28;5055889;28;1211;-59
2024/01/20 09:31:59;;;;;;;;;;;;;;;15.65;48.53;101507.38;5055463;28;1336;-58
2024/01/20 09:34:25;;;;;;;;;;;;;;;16.46;46.61;101503.34;5055979;28;1140;-57
2024/01/20 09:36:50;;;;;;;;;;;;;;;17.56;44.01;101496.03;5056464;28;1360;-59
2024/01/20 09:39:16;;;;;;;;;;;;;;;16.58;45.97;101522.47;5055398;28;1183;-58
2024/01/20 09:41:42;;;;;;;;;;;;;;;16.02;47.42;101515.13;5055378;28;1340;-58
2024/01/20 09:44:08;;;;;;;;;;;;;;;15.76;48.21;101507.56;5037641;28;1898;-58
2024/01/20 09:46:34;;;;;;;;;;;;;;;15.51;48.61;101503.31;5038063;28;988;-58
2024/01/20 09:49:00;;;;;;;;;;;;;;;16.64;46.34;101515.94;5055333;28;1384;-58
2024/01/20 09:51:28;;;;;;;;;;;;;;;17.65;43.81;101501.84;5045453;28;1044;-57
2024/01/20 09:53:59;;;;;;;;;;;;;;;16.44;46.39;101513.78;5055213;28;1104;-60
2024/01/20 09:56:28;;;;;;;;;;;;;;;15.99;47.66;101518.38;5055420;28;1951;-65
2024/01/20 09:58:58;;;;;;;;;;;;;;;15.70;48.34;101529.38;5055967;28;1087;-65
2024/01/20 10:01:24;;;;;;;;;;;;;;;15.56;48.49;101519.84;5055781;28;992;-60
2024/01/20 10:03:50;;;;;;;;;;;;;;;17.07;45.22;101527.19;5037557;28;1721;-60
2024/01/20 10:06:15;;;;;;;;;;;;;;;17.37;44.07;101540.38;5055630;28;1914;-61
2024/01/20 10:08:41;;;;;;;;;;;;;;;16.40;46.25;101534.59;5055103;28;980;-63
2024/01/20 10:11:06;;;;;;;;;;;;;;;15.95;47.41;101543.78;5055419;28;1190;-62
2024/01/20 10:13:32;;;;;;;;;;;;;;;15.68;48.36;101541.69;5055379;28;1071;-62
2024/01/20 10:15:57;;;;;;;;;;;;;;;15.48;48.49;101545.75;5055651;28;1107;-63
2024/01/20 10:18:23;;;;;;;;;;;;;;;16.74;45.78;101551.75;5055891;28;1183;-62
2024/01/20 10:20:48;;;;;;;;;;;;;;;17.68;43.38;101559.09;5054424;28;1138;-62
2024/01/20 10:23:14;;;;;;;;;;;;;;;16.56;46.13;101544.69;5054838;28;1036;-63
2024/01/20 10:25:39;;;;;;;;;;;;;;;16.01;47.56;101545.53;5055264;28;1977;-63
2024/01/20 10:28:05;;;;;;;;;;;;;;;15.72;48.16;101551.94;5055050;28;1059;-63
2024/01/20 10:30:30;;;;;;;;;;;;;;;15.56;48.35;101553.56;5055288;28;1037;-63
2024/01/20 10:32:58;;;;;;;;;;;;;;;16.74;45.66;101551.75;5054690;28;906;-63
2024/01/20 10:35:24;;;;;;;;;;;;;;;17.63;43.68;101546.13;5057528;28;1040;-64
2024/01/20 10:37:50;;;;;;;;;;;;;;;16.49;45.98;101537.72;5058775;28;1052;-62
2024/01/20 10:40:16;;;;;;;;;;;;;;;15.97;47.39;101536.16;5058756;28;1136;-63
2024/01/20 10:42:43;;;;;;;;;;;;;;;15.72;48.15;101540.09;5058538;28;1028;-64
2024/01/20 10:45:09;;;;;;;;;;;;;;;15.83;48.10;101524.69;5058526;28;1999;-62
2024/01/20 10:47:38;;;;;;;;;;;;;;;17.40;44.15;101537.13;5058258;28;1337;-61
2024/01/20 10:50:04;;;;;;;;;;;;;;;17.07;44.81;101533.50;5058618;28;1009;-65
2024/01/20 10:52:31;;;;;;;;;;;;;;;16.24;46.84;101537.13;5058195;28;1279;-61
2024/01/20 10:54:56;;;;;;;;;;;;;;;15.86;47.64;101524.19;5058153;28;1007;-62
2024/01/20 10:57:22;;;;;;;;;;;;;;;15.65;48.42;101536.72;5058405;28;1933;-60
2024/01/20 10:59:47;;;;;;;;;;;;;;;15.86;48.08;101546.13;5058448;28;1071;-62
2024/01/20 11:02:13;;;;;;;;;;;;;;;17.33;44.51;101542.00;5039921;28;1212;-66
2024/01/20 11:04:40;;;;;;;;;;;;;;;16.91;44.97;101540.75;5057993;28;1898;-64
2024/01/20 11:07:06;;;;;;;;;;;;;;;16.16;46.87;101554.00;5058077;28;1123;-63
2024/01/20 11:09:32;;;;;;;;;;;;;;;15.79;48.04;101548.19;5057846;28;979;-63
2024/01/20 11:12:00;;;;;;;;;;;;;;;15.56;48.41;101555.47;5058559;28;992;-64
2024/01/20 11:14:32;;;;;;;;;;;;;;;15.94;47.67;101542.97;5057875;28;984;-64
2024/01/20 11:17:01;;;;;;;;;;;;;;;17.41;44.16;101549.75;5058032;28;1105;-67
2024/01/20 11:19:30;;;;;;;;;;;;;;;16.85;45.06;101552.72;5057769;28;1191;-63
2024/01/20 11:21:56;;;;;;;;;;;;;;;16.10;47.17;101565.16;5053525;28;1044;-65
2024/01/20 11:24:38;;;;;;;;;;;;;;;15.78;47.86;101558.31;5055884;28;1898;-66
2024/01/20 11:27:04;;;;;;;;;;;;;;;15.64;48.38;101563.31;5057863;28;1960;-65
2024/01/20 11:29:30;;;;;;;;;;;;;;;17.14;44.98;101559.94;5065406;28;1028;-61
2024/01/20 11:31:56;;;;;;;;;;;;;;;17.08;44.60;101579.13;5045685;28;1059;-62
2024/01/20 11:34:21;;;;;;;;;;;;;;;16.21;46.72;101575.19;5057869;28;1024;-62
2024/01/20 11:36:48;;;;;;;;;;;;;;;15.82;47.59;101580.63;5049213;28;1075;-62
2024/01/20 11:39:14;;;;;;;;;;;;;;;15.64;48.28;101579.75;5049797;28;1005;-61
2024/01/20 11:41:40;;;;;;;;;;;;;;;16.04;47.29;101578.78;5057436;28;1218;-63
2024/01/20 11:44:05;;;;;;;;;;;;;;;17.41;44.03;101581.94;5056918;28;1117;-59
2024/01/20 11:46:31;;;;;;;;;;;;;;;17.07;44.49;101577.47;5056606;28;1918;-63
2024/01/20 11:48:56;;;;;;;;;;;;;;;16.24;46.70;101585.66;5057402;28;1174;-60
2024/01/20 11:51:22;;;;;;;;;;;;;;;15.85;47.69;101591.94;5057466;28;1143;-64
2024/01/20 11:53:47;;;;;;;;;;;;;;;15.65;47.96;101594.28;5057142;28;1075;-63
2024/01/20 11:56:14;;;;;;;;;;;;;;;16.34;46.64;101605.03;5056913;28;1826;-61
2024/01/20 11:58:40;;;;;;;;;;;;;;;17.61;43.56;101587.66;5057998;28;1191;-68
2024/01/20 12:01:05;;;;;;;;;;;;;;;16.66;45.46;101589.81;5057251;28;1138;-61
2024/01/20 12:03:31;;;;;;;;;;;;;;;16.04;47.17;101603.47;5057548;28;1041;-61
2024/01/20 12:06:02;;;;;;;;;;;;;;;15.76;47.67;101595.31;5056897;28;1906;-60
2024/01/20 12:08:28;;;;;;;;;;;;;;;15.57;48.21;101606.47;5044193;28;1211;-56
2024/01/20 12:10:53;;;;;;;;;;;;;;;17.20;44.65;101616.63;5029474;28;1044;-55
2024/01/20 12:13:19;;;;;;;;;;;;;;;17.27;43.98;101607.06;5053677;28;1424;-55
2024/01/20 12:15:45;;;;;;;;;;;;;;;16.32;46.44;101620.91;5039069;28;1171;-56
2024/01/20 12:18:11;;;;;;;;;;;;;;;15.89;47.36;101616.94;5039423;28;1081;-55
2024/01/20 12:20:37;;;;;;;;;;;;;;;15.66;48.16;101632.41;5056335;28;1032;-55
2024/01/20 12:23:02;;;;;;;;;;;;;;;15.73;47.92;101627.59;5056129;28;1000;-55
2024/01/20 12:25:31;;;;;;;;;;;;;;;17.30;44.21;101640.66;5056447;28;1918;-56
2024/01/20 12:27:57;;;;;;;;;;;;;;;17.16;44.24;101630.03;5056882;28;2471;-57
2024/01/20 12:30:22;;;;;;;;;;;;;;;16.20;46.50;101628.41;5056919;28;1099;-57
2024/01/20 12:32:48;;;;;;;;;;;;;;;15.88;47.50;101640.78;5056347;28;1040;-55
2024/01/20 12:35:13;;;;;;;;;;;;;;;15.65;47.84;101630.75;5056284;28;1551;-55
2024/01/20 12:37:39;;;;;;;;;;;;;;;16.57;46.02;101636.13;5056191;28;1168;-54
2024/01/20 12:40:08;;;;;;;;;;;;;;;17.53;43.55;101637.63;5055653;28;1317;-56